San Diego, California
Traffic Map
Current Weather Conditions
San Diego, California
Scattered Clouds
Scattered Clouds
20°
Feels Like: 20°
Wind Chill: 20° Ceiling: Unl
Heat Index: 20° Visibility: 7mi
Dew Point: 13° Wind: 5mph
Humidity: 65% Direction: 320° (NW)
Pressure: 29.97in Gusts: 0mph
Raw Report DataKSAN 291751Z 32004KT 7SM SCT015 20/13 A2997 RMK AO2 SLP147 T02000133 10200 20161 58003 $
Traffic Incident Summary
Active as of:
Severity:
Category:
InformationThere was an issue retrieving the traffic information for this location. Please try a different location or try again shortly.
Advertisements
Track Severe Weather on mobile